Time;durP1;ratioP1;P1;durP2;ratioP2;P2;SDS_P1;SDS_P2;PMS_P1;PMS_P2;Temp;Humidity;BMP_temperature;BMP_pressure;BME280_temperature;BME280_humidity;BME280_pressure;Samples;Min_cycle;Max_cycle;Signal;HPM_P1;HPM_P2
2023/05/25 00:00:40;;;;;;;1.73;1.63;;;20.20;83.00;;;;;;4953306;28;20528;-67
2023/05/25 00:03:08;;;;;;;1.98;1.88;;;20.20;83.10;;;;;;4929659;28;20240;-67
2023/05/25 00:05:36;;;;;;;1.77;1.67;;;20.20;83.10;;;;;;4956854;28;20216;-67
2023/05/25 00:08:03;;;;;;;1.85;1.75;;;20.20;83.10;;;;;;4959593;28;20201;-66
2023/05/25 00:10:31;;;;;;;1.35;1.35;;;20.20;83.10;;;;;;4960138;28;20613;-66
2023/05/25 00:12:59;;;;;;;2.47;2.28;;;20.20;83.10;;;;;;4952294;28;20672;-67
2023/05/25 00:15:26;;;;;;;1.70;1.60;;;20.10;83.00;;;;;;4960114;28;20199;-67
2023/05/25 00:17:53;;;;;;;2.17;2.08;;;20.10;83.20;;;;;;4952488;28;20212;-67
2023/05/25 00:20:21;;;;;;;2.00;1.90;;;20.10;83.20;;;;;;4953534;28;20200;-67
2023/05/25 00:22:48;;;;;;;2.10;2.00;;;20.00;83.20;;;;;;4945896;28;20296;-66
2023/05/25 00:25:15;;;;;;;1.83;1.73;;;19.90;83.10;;;;;;4960313;28;20208;-67
2023/05/25 00:27:43;;;;;;;2.25;2.15;;;19.90;83.10;;;;;;4961370;28;20200;-67
2023/05/25 00:30:11;;;;;;;2.20;1.90;;;19.90;83.20;;;;;;4959420;28;20346;-67
2023/05/25 00:32:38;;;;;;;1.80;1.70;;;19.90;83.20;;;;;;4960174;28;20213;-67
2023/05/25 00:35:06;;;;;;;2.00;1.90;;;19.80;83.20;;;;;;4956793;28;20196;-67
2023/05/25 00:37:33;;;;;;;2.28;2.08;;;19.80;83.40;;;;;;4955101;28;20207;-67
2023/05/25 00:40:00;;;;;;;2.08;1.88;;;19.80;83.60;;;;;;4941725;28;20285;-67
2023/05/25 00:42:29;;;;;;;2.20;2.10;;;19.80;83.80;;;;;;4944434;28;20201;-67
2023/05/25 00:44:57;;;;;;;1.80;1.70;;;19.70;83.80;;;;;;4949550;28;20246;-67
2023/05/25 00:47:26;;;;;;;2.25;2.05;;;19.60;83.90;;;;;;4959256;28;20205;-67
2023/05/25 00:49:53;;;;;;;1.92;1.80;;;19.60;84.20;;;;;;4949924;28;20294;-67
2023/05/25 00:52:20;;;;;;;1.80;1.70;;;19.60;84.30;;;;;;4960141;28;20513;-66
2023/05/25 00:54:50;;;;;;;1.95;1.85;;;19.50;84.40;;;;;;4959621;28;20200;-66
2023/05/25 00:57:21;;;;;;;1.95;1.85;;;19.60;84.70;;;;;;4957732;28;20197;-66
2023/05/25 00:59:51;;;;;;;1.85;1.75;;;19.50;84.80;;;;;;4951920;28;20208;-67
2023/05/25 01:02:20;;;;;;;1.85;1.75;;;19.50;85.00;;;;;;4957804;28;20220;-66
2023/05/25 01:04:51;;;;;;;2.58;2.38;;;19.50;85.10;;;;;;4959714;28;20200;-67
2023/05/25 01:07:22;;;;;;;2.00;1.85;;;19.50;85.20;;;;;;4958956;28;20580;-66
2023/05/25 01:09:52;;;;;;;2.00;1.90;;;19.60;85.50;;;;;;4958923;28;20458;-67
2023/05/25 01:12:22;;;;;;;2.13;2.03;;;19.50;85.50;;;;;;4957992;28;20431;-66
2023/05/25 01:14:52;;;;;;;1.75;1.65;;;19.50;85.70;;;;;;4945206;28;20196;-66
2023/05/25 01:17:21;;;;;;;1.83;1.73;;;19.50;85.80;;;;;;4954047;28;20219;-66
2023/05/25 01:19:48;;;;;;;2.28;1.90;;;19.60;86.00;;;;;;4961034;28;20674;-67
2023/05/25 01:22:24;;;;;;;1.83;1.73;;;19.50;86.00;;;;;;4952727;28;20204;-66
2023/05/25 01:24:54;;;;;;;1.77;1.67;;;19.50;86.20;;;;;;4942996;28;20623;-65
2023/05/25 01:27:26;;;;;;;2.00;1.90;;;19.50;86.40;;;;;;4952671;28;20308;-67
2023/05/25 01:29:55;;;;;;;1.95;1.85;;;19.50;86.60;;;;;;4958536;28;20209;-67
2023/05/25 01:32:23;;;;;;;2.92;2.35;;;19.50;86.70;;;;;;4941209;28;20208;-67
2023/05/25 01:34:52;;;;;;;2.63;2.28;;;19.50;86.80;;;;;;4941205;28;20295;-66
2023/05/25 01:37:22;;;;;;;2.13;2.03;;;19.50;87.10;;;;;;4958441;28;20292;-66
2023/05/25 01:39:49;;;;;;;2.03;1.85;;;19.50;87.20;;;;;;4950142;28;20274;-66
2023/05/25 01:42:16;;;;;;;2.05;1.95;;;19.50;87.30;;;;;;4957322;28;20762;-66
2023/05/25 01:44:44;;;;;;;1.65;1.55;;;19.50;87.40;;;;;;4923396;28;20255;-66
2023/05/25 01:47:20;;;;;;;2.20;2.10;;;19.50;87.50;;;;;;4945610;28;20204;-66
2023/05/25 01:49:59;;;;;;;2.28;2.03;;;19.50;87.60;;;;;;4957868;28;20203;-66
2023/05/25 01:52:31;;;;;;;1.95;1.85;;;19.50;87.80;;;;;;4956668;28;20247;-66
2023/05/25 01:55:04;;;;;;;1.70;1.60;;;19.40;88.00;;;;;;4958570;28;20196;-65
2023/05/25 01:57:35;;;;;;;2.38;2.17;;;19.40;88.10;;;;;;4940564;28;20212;-66
2023/05/25 02:00:04;;;;;;;1.65;1.55;;;19.50;88.40;;;;;;4958216;28;20740;-66
2023/05/25 02:02:41;;;;;;;1.38;1.38;;;19.50;88.30;;;;;;4957072;28;20235;-66
2023/05/25 02:05:10;;;;;;;1.73;1.63;;;19.50;88.30;;;;;;4940101;28;20681;-66
2023/05/25 02:07:38;;;;;;;2.40;2.20;;;19.50;88.40;;;;;;4953641;28;20264;-66
2023/05/25 02:10:06;;;;;;;2.03;1.92;;;19.50;88.50;;;;;;4948886;28;20912;-67
2023/05/25 02:12:33;;;;;;;2.30;2.15;;;19.50;88.60;;;;;;4957796;28;20212;-66
2023/05/25 02:15:00;;;;;;;2.13;1.70;;;19.40;88.70;;;;;;4949956;28;20916;-68
2023/05/25 02:17:28;;;;;;;1.92;1.83;;;19.40;88.90;;;;;;4959844;28;20203;-66
2023/05/25 02:19:56;;;;;;;1.80;1.70;;;19.40;89.00;;;;;;4946515;28;20228;-67
2023/05/25 02:22:23;;;;;;;2.05;1.95;;;19.40;89.10;;;;;;4956121;28;20201;-66
2023/05/25 02:24:52;;;;;;;1.83;1.73;;;19.40;89.20;;;;;;4948263;28;20854;-67
2023/05/25 02:27:19;;;;;;;2.88;2.67;;;19.40;89.30;;;;;;4962010;28;20205;-66
2023/05/25 02:29:48;;;;;;;2.25;2.15;;;19.40;89.50;;;;;;4956959;28;20297;-68
2023/05/25 02:32:15;;;;;;;2.20;2.10;;;19.30;89.60;;;;;;4956434;28;20217;-66
2023/05/25 02:34:43;;;;;;;2.00;1.90;;;19.30;89.70;;;;;;4929604;28;20629;-66
2023/05/25 02:37:10;;;;;;;2.25;2.15;;;19.30;89.80;;;;;;4956460;28;20275;-66
2023/05/25 02:39:38;;;;;;;2.17;1.90;;;19.30;89.90;;;;;;4948482;28;20211;-67
2023/05/25 02:42:07;;;;;;;1.95;1.85;;;19.30;90.00;;;;;;4940513;28;20209;-66
2023/05/25 02:44:34;;;;;;;1.80;1.70;;;19.30;90.00;;;;;;4938144;28;20213;-66
2023/05/25 02:47:01;;;;;;;3.35;1.90;;;19.30;90.10;;;;;;4930642;28;20204;-66
2023/05/25 02:49:29;;;;;;;2.08;1.98;;;19.30;90.10;;;;;;4920497;28;20209;-66
2023/05/25 02:51:56;;;;;;;2.47;1.85;;;19.30;90.10;;;;;;4961595;28;20288;-66
2023/05/25 02:54:23;;;;;;;2.10;1.90;;;19.20;90.10;;;;;;4928142;28;20206;-66
2023/05/25 02:56:50;;;;;;;1.77;1.67;;;19.20;90.20;;;;;;4959313;28;20208;-66
2023/05/25 02:59:20;;;;;;;2.15;1.83;;;19.20;90.20;;;;;;4941903;28;20239;-66
2023/05/25 03:01:47;;;;;;;1.70;1.60;;;19.20;90.20;;;;;;4940198;28;20665;-66
2023/05/25 03:04:15;;;;;;;1.95;1.85;;;19.20;90.20;;;;;;4938135;28;20224;-67
2023/05/25 03:06:44;;;;;;;1.83;1.73;;;19.20;90.30;;;;;;4962072;28;20229;-67
2023/05/25 03:09:17;;;;;;;2.40;2.20;;;19.20;90.40;;;;;;4942649;28;20203;-65
2023/05/25 03:11:47;;;;;;;1.92;1.83;;;19.10;90.40;;;;;;4960292;28;20552;-67
2023/05/25 03:14:17;;;;;;;1.80;1.70;;;19.20;90.50;;;;;;4958689;28;20193;-67
2023/05/25 03:16:52;;;;;;;1.95;1.85;;;19.20;90.50;;;;;;4956739;28;20207;-66
2023/05/25 03:19:20;;;;;;;2.00;1.90;;;19.20;90.50;;;;;;4960342;28;20799;-66
2023/05/25 03:21:47;;;;;;;2.13;2.00;;;19.10;90.40;;;;;;4958411;28;20740;-66
2023/05/25 03:24:14;;;;;;;1.70;1.60;;;19.10;90.50;;;;;;4938111;28;20291;-67
2023/05/25 03:26:41;;;;;;;2.42;2.22;;;19.10;90.60;;;;;;4949931;28;20737;-65
2023/05/25 03:29:09;;;;;;;2.35;2.22;;;19.10;90.60;;;;;;4929406;28;20210;-66
2023/05/25 03:31:36;;;;;;;1.98;1.88;;;19.10;90.70;;;;;;4956792;28;20488;-66
2023/05/25 03:34:05;;;;;;;1.90;1.80;;;19.10;90.70;;;;;;4956828;28;20218;-66
2023/05/25 03:36:36;;;;;;;2.10;1.90;;;19.10;90.70;;;;;;4945433;28;20207;-67
2023/05/25 03:39:03;;;;;;;1.77;1.67;;;19.00;90.70;;;;;;4961421;28;20548;-67
2023/05/25 03:41:31;;;;;;;2.13;1.92;;;19.00;90.80;;;;;;4947905;28;20393;-66
2023/05/25 03:43:58;;;;;;;3.20;2.15;;;19.00;90.90;;;;;;4960816;28;20284;-65
2023/05/25 03:46:25;;;;;;;3.53;2.58;;;18.90;90.90;;;;;;4955458;28;20277;-67
2023/05/25 03:48:52;;;;;;;2.25;2.10;;;18.90;90.90;;;;;;4958506;28;20616;-67
2023/05/25 03:51:21;;;;;;;2.22;2.13;;;18.90;90.90;;;;;;4923245;28;20612;-67
2023/05/25 03:53:48;;;;;;;2.90;2.60;;;18.90;90.90;;;;;;4953029;28;20251;-66
2023/05/25 03:56:15;;;;;;;2.58;2.38;;;18.80;91.00;;;;;;4941910;28;20286;-66
2023/05/25 03:58:42;;;;;;;2.55;2.30;;;18.80;91.00;;;;;;4944828;28;20205;-65
2023/05/25 04:01:11;;;;;;;2.63;2.42;;;18.70;91.00;;;;;;4958660;28;20196;-65
2023/05/25 04:03:38;;;;;;;2.80;2.60;;;18.70;91.20;;;;;;4958719;28;20796;-66
2023/05/25 04:06:06;;;;;;;2.20;2.10;;;18.60;91.20;;;;;;4956126;28;22539;-65
2023/05/25 04:08:34;;;;;;;3.15;2.38;;;18.60;91.30;;;;;;4942424;28;20715;-66
2023/05/25 04:11:01;;;;;;;3.55;3.25;;;18.60;91.30;;;;;;4958737;28;20656;-67
2023/05/25 04:13:28;;;;;;;2.60;2.40;;;18.70;91.40;;;;;;4961652;28;21016;-66
2023/05/25 04:15:56;;;;;;;2.67;2.47;;;18.70;91.40;;;;;;4959716;28;20199;-67
2023/05/25 04:18:27;;;;;;;2.80;2.55;;;18.80;91.40;;;;;;4957813;28;20272;-66
2023/05/25 04:20:56;;;;;;;4.00;2.15;;;18.70;91.40;;;;;;4948472;28;20205;-67
2023/05/25 04:23:24;;;;;;;2.35;1.95;;;18.80;91.40;;;;;;4942579;28;20211;-66
2023/05/25 04:25:54;;;;;;;2.50;2.30;;;18.80;91.40;;;;;;4959255;28;20199;-66
2023/05/25 04:28:22;;;;;;;4.07;2.65;;;18.80;91.50;;;;;;4941572;28;20235;-66
2023/05/25 04:31:12;;;;;;;1.83;1.73;;;18.90;91.60;;;;;;4957101;28;20279;-67
2023/05/25 04:34:01;;;;;;;1.63;1.52;;;18.90;91.50;;;;;;4957356;28;20224;-66
2023/05/25 04:36:42;;;;;;;3.05;2.40;;;19.00;91.50;;;;;;4930505;28;20196;-66
2023/05/25 04:39:13;;;;;;;1.90;1.80;;;19.00;91.50;;;;;;4941854;28;20237;-67
2023/05/25 04:41:48;;;;;;;1.92;1.63;;;19.10;91.50;;;;;;4957424;28;20204;-67
2023/05/25 04:44:15;;;;;;;1.70;1.60;;;19.10;91.50;;;;;;4956871;28;20699;-67
2023/05/25 04:46:46;;;;;;;3.05;2.83;;;19.10;91.50;;;;;;4942462;28;20743;-68
2023/05/25 04:49:19;;;;;;;3.00;2.40;;;19.20;91.60;;;;;;4956834;28;20205;-68
2023/05/25 04:51:46;;;;;;;2.00;1.90;;;19.20;91.60;;;;;;4959479;28;20283;-66
2023/05/25 04:54:13;;;;;;;2.00;1.67;;;19.20;91.60;;;;;;4958541;28;20326;-66
2023/05/25 04:56:40;;;;;;;1.92;1.77;;;19.20;91.60;;;;;;4930985;28;20242;-66
2023/05/25 04:59:09;;;;;;;2.00;1.90;;;19.20;91.70;;;;;;4958324;28;20693;-65
2023/05/25 05:01:40;;;;;;;1.85;1.75;;;19.30;91.80;;;;;;4940196;28;20248;-66
2023/05/25 05:04:09;;;;;;;1.73;1.50;;;19.30;91.80;;;;;;4955401;28;20200;-67
2023/05/25 05:06:36;;;;;;;6.45;2.13;;;19.30;91.80;;;;;;4934716;28;20288;-67
2023/05/25 05:09:04;;;;;;;3.05;1.98;;;19.40;91.80;;;;;;4956711;28;20300;-67
2023/05/25 05:11:31;;;;;;;3.70;2.33;;;19.50;91.90;;;;;;4956421;28;20309;-68
2023/05/25 05:13:59;;;;;;;2.05;1.95;;;19.60;91.90;;;;;;4947066;28;20315;-67
2023/05/25 05:16:33;;;;;;;2.25;2.05;;;19.60;91.90;;;;;;4956930;28;20629;-68
2023/05/25 05:19:01;;;;;;;1.70;1.60;;;19.60;91.90;;;;;;4941881;28;20210;-67
2023/05/25 05:21:28;;;;;;;1.95;1.85;;;19.60;91.90;;;;;;4930464;28;20204;-67
2023/05/25 05:23:56;;;;;;;2.60;2.17;;;19.60;91.90;;;;;;4954880;28;20266;-67
2023/05/25 05:26:23;;;;;;;1.90;1.80;;;19.70;92.00;;;;;;4942401;28;20221;-67
2023/05/25 05:28:51;;;;;;;2.30;1.50;;;19.70;92.10;;;;;;4955462;28;20207;-67
2023/05/25 05:31:19;;;;;;;2.22;1.88;;;19.70;92.10;;;;;;4940551;28;20767;-65
2023/05/25 05:33:48;;;;;;;1.65;1.55;;;19.50;92.00;;;;;;4940248;28;20216;-68
2023/05/25 05:36:16;;;;;;;1.92;1.75;;;19.70;92.10;;;;;;4958964;28;20192;-68
2023/05/25 05:38:45;;;;;;;2.10;1.90;;;19.70;92.10;;;;;;4946284;28;20244;-68
2023/05/25 05:41:13;;;;;;;1.67;1.58;;;19.70;92.20;;;;;;4939081;28;20217;-68
2023/05/25 05:43:42;;;;;;;2.00;1.90;;;19.80;92.20;;;;;;4956756;28;20336;-67
2023/05/25 05:46:10;;;;;;;1.83;1.70;;;19.80;92.20;;;;;;4959003;28;20692;-66
2023/05/25 05:48:37;;;;;;;1.40;1.40;;;19.90;92.30;;;;;;4940694;28;20881;-67
2023/05/25 05:51:06;;;;;;;1.50;1.40;;;19.90;92.30;;;;;;4958700;28;20195;-66
2023/05/25 05:53:34;;;;;;;1.60;1.50;;;20.00;92.40;;;;;;4960103;28;20295;-66
2023/05/25 05:56:02;;;;;;;1.60;1.50;;;20.00;92.40;;;;;;4959897;28;20204;-66
2023/05/25 05:58:31;;;;;;;2.50;2.30;;;20.00;92.30;;;;;;4960205;28;20236;-66
2023/05/25 06:00:58;;;;;;;1.52;1.45;;;20.00;92.40;;;;;;4944543;28;20203;-66
2023/05/25 06:03:27;;;;;;;1.45;1.35;;;20.10;92.40;;;;;;4940752;28;20204;-67
2023/05/25 06:05:57;;;;;;;1.30;1.30;;;20.10;92.40;;;;;;4941606;28;20981;-67
2023/05/25 06:08:26;;;;;;;1.73;1.55;;;20.10;92.30;;;;;;4956815;28;20300;-67
2023/05/25 06:10:54;;;;;;;1.95;1.80;;;20.20;92.40;;;;;;4939710;28;20685;-66
2023/05/25 06:13:22;;;;;;;5.03;2.30;;;20.20;92.30;;;;;;4954808;28;20211;-66
2023/05/25 06:15:50;;;;;;;1.90;1.80;;;20.30;92.40;;;;;;4959700;28;21253;-66
2023/05/25 06:18:22;;;;;;;1.42;1.40;;;20.40;92.40;;;;;;4959561;28;20203;-66
2023/05/25 06:20:49;;;;;;;2.00;1.63;;;20.40;92.30;;;;;;4959209;28;20955;-67
2023/05/25 06:23:17;;;;;;;1.90;1.80;;;20.50;92.30;;;;;;4943495;28;20240;-67
2023/05/25 06:25:46;;;;;;;1.73;1.60;;;20.50;92.30;;;;;;4955688;28;21174;-66
2023/05/25 06:28:13;;;;;;;3.15;2.40;;;20.60;92.30;;;;;;4962162;28;20588;-67
2023/05/25 06:30:40;;;;;;;3.45;2.40;;;20.60;92.30;;;;;;4958539;28;20371;-67
2023/05/25 06:33:08;;;;;;;1.90;1.80;;;20.70;92.30;;;;;;4929956;28;20212;-67
2023/05/25 06:35:35;;;;;;;1.73;1.63;;;20.70;92.20;;;;;;4942176;28;20204;-66
2023/05/25 06:38:03;;;;;;;1.80;1.70;;;20.70;92.10;;;;;;4924225;28;20204;-66
2023/05/25 06:40:30;;;;;;;1.60;1.50;;;20.80;92.10;;;;;;4959888;28;20213;-65
2023/05/25 06:42:59;;;;;;;1.92;1.60;;;20.80;92.00;;;;;;4946593;28;20711;-66
2023/05/25 06:45:46;;;;;;;1.83;1.73;;;20.80;91.90;;;;;;4956755;28;20912;-65
2023/05/25 06:48:14;;;;;;;1.20;1.20;;;20.90;91.80;;;;;;4919281;28;20209;-68
2023/05/25 06:50:42;;;;;;;1.65;1.55;;;20.90;91.70;;;;;;4916958;28;20287;-67
2023/05/25 06:53:10;;;;;;;1.77;1.67;;;21.00;91.70;;;;;;4961473;28;20274;-68
2023/05/25 06:55:37;;;;;;;1.23;1.23;;;21.10;91.60;;;;;;4950157;28;20631;-68
2023/05/25 06:58:05;;;;;;;1.55;1.45;;;21.10;91.60;;;;;;4953377;28;20807;-67
2023/05/25 07:00:33;;;;;;;2.33;2.13;;;21.20;91.50;;;;;;4960042;28;21006;-68
2023/05/25 07:03:00;;;;;;;1.85;1.75;;;21.30;91.50;;;;;;4953892;28;20197;-68
2023/05/25 07:05:27;;;;;;;1.75;1.65;;;21.30;91.40;;;;;;4959828;28;20314;-68
2023/05/25 07:07:54;;;;;;;1.50;1.40;;;21.40;91.30;;;;;;4942861;28;20580;-68
2023/05/25 07:10:21;;;;;;;3.20;1.70;;;21.40;91.20;;;;;;4956922;28;20209;-68
2023/05/25 07:12:48;;;;;;;2.47;2.28;;;21.50;91.20;;;;;;4959482;28;20299;-67
2023/05/25 07:15:17;;;;;;;1.88;1.77;;;21.60;91.10;;;;;;4958778;28;20209;-68
2023/05/25 07:17:46;;;;;;;1.60;1.50;;;21.60;91.00;;;;;;4951725;28;20259;-67
2023/05/25 07:20:13;;;;;;;2.00;1.90;;;21.70;90.90;;;;;;4941534;28;20212;-68
2023/05/25 07:22:41;;;;;;;2.05;1.95;;;21.70;90.80;;;;;;4959956;28;20213;-67
2023/05/25 07:25:09;;;;;;;2.00;1.58;;;21.80;90.80;;;;;;4951652;28;20200;-68
2023/05/25 07:27:36;;;;;;;1.95;1.75;;;21.90;90.80;;;;;;4958935;28;20273;-68
2023/05/25 07:30:03;;;;;;;1.85;1.75;;;21.70;90.70;;;;;;4958341;28;20209;-66
2023/05/25 07:32:32;;;;;;;2.58;1.75;;;22.00;90.80;;;;;;4959015;28;20197;-67
2023/05/25 07:35:00;;;;;;;1.67;1.58;;;22.00;90.80;;;;;;4953731;28;20525;-67
2023/05/25 07:37:27;;;;;;;1.92;1.83;;;22.10;90.80;;;;;;4939257;28;20205;-67
2023/05/25 07:39:54;;;;;;;3.60;2.30;;;22.10;90.80;;;;;;4957277;28;20207;-67
2023/05/25 07:42:21;;;;;;;3.30;2.33;;;22.20;90.80;;;;;;4958425;28;20522;-67
2023/05/25 07:44:48;;;;;;;1.92;1.83;;;22.30;90.80;;;;;;4953619;28;20223;-66
2023/05/25 07:47:16;;;;;;;2.63;1.60;;;22.30;90.80;;;;;;4961333;28;20684;-67
2023/05/25 07:49:44;;;;;;;1.95;1.80;;;22.30;90.70;;;;;;4945888;28;20279;-66
2023/05/25 07:52:12;;;;;;;2.42;1.63;;;22.40;90.70;;;;;;4960230;28;20208;-68
2023/05/25 07:54:39;;;;;;;1.90;1.80;;;22.40;90.70;;;;;;4959362;28;20279;-66
2023/05/25 07:57:07;;;;;;;1.83;1.73;;;22.50;90.70;;;;;;4933539;28;20234;-67
2023/05/25 07:59:34;;;;;;;2.55;1.85;;;22.50;90.70;;;;;;4952525;28;20599;-66
2023/05/25 08:02:02;;;;;;;2.08;1.88;;;22.60;90.60;;;;;;4950431;28;20204;-66
2023/05/25 08:04:30;;;;;;;2.85;1.85;;;22.60;90.50;;;;;;4952304;28;20690;-67
2023/05/25 08:06:59;;;;;;;1.20;1.20;;;22.70;90.50;;;;;;4951191;28;20266;-67
2023/05/25 08:09:26;;;;;;;1.50;1.40;;;22.80;90.40;;;;;;4941955;28;20555;-66
2023/05/25 08:11:53;;;;;;;1.70;1.60;;;22.80;90.30;;;;;;4929378;28;20566;-66
2023/05/25 08:14:22;;;;;;;1.42;1.40;;;22.90;90.20;;;;;;4957936;28;21205;-67
2023/05/25 08:16:50;;;;;;;3.50;1.38;;;22.90;90.10;;;;;;4956516;28;20203;-66
2023/05/25 08:19:17;;;;;;;1.30;1.20;;;22.90;90.00;;;;;;4954302;28;20201;-67
2023/05/25 08:21:45;;;;;;;3.05;1.40;;;23.10;90.00;;;;;;4955001;28;20203;-67
2023/05/25 08:24:13;;;;;;;1.23;1.20;;;23.10;89.80;;;;;;4955514;28;20346;-67
2023/05/25 08:26:42;;;;;;;1.30;1.30;;;23.20;89.60;;;;;;4955408;28;20672;-67
2023/05/25 08:29:09;;;;;;;1.80;1.70;;;23.30;89.30;;;;;;4957267;28;20368;-67
2023/05/25 08:31:36;;;;;;;1.90;1.63;;;23.30;88.70;;;;;;4951533;28;20201;-68
2023/05/25 08:34:03;;;;;;;1.30;1.30;;;23.30;88.10;;;;;;4956973;28;20228;-66
2023/05/25 08:36:32;;;;;;;1.40;1.30;;;23.30;87.50;;;;;;4953174;28;20703;-67
2023/05/25 08:39:00;;;;;;;1.65;1.55;;;23.30;87.70;;;;;;4957915;28;20684;-66
2023/05/25 08:41:29;;;;;;;1.50;1.40;;;23.40;86.50;;;;;;4957870;28;20212;-67
2023/05/25 08:43:56;;;;;;;1.13;1.13;;;23.40;85.90;;;;;;4958177;28;20204;-66
2023/05/25 08:46:30;;;;;;;1.20;1.20;;;23.40;85.60;;;;;;4955754;28;20245;-66
2023/05/25 08:49:04;;;;;;;1.48;1.38;;;23.40;85.20;;;;;;4955439;28;20205;-66
2023/05/25 08:51:37;;;;;;;1.60;1.50;;;23.40;84.60;;;;;;4939956;28;20203;-67
2023/05/25 08:54:09;;;;;;;1.73;1.63;;;23.40;83.70;;;;;;4958197;28;20338;-67
2023/05/25 08:56:49;;;;;;;1.40;1.30;;;23.30;83.10;;;;;;4958360;28;21119;-67
2023/05/25 08:59:26;;;;;;;1.35;1.35;;;23.50;83.10;;;;;;4940572;28;20199;-67
2023/05/25 09:01:58;;;;;;;2.15;1.80;;;23.60;83.00;;;;;;4945713;28;20223;-67
2023/05/25 09:04:28;;;;;;;1.63;1.50;;;23.60;82.20;;;;;;4958214;28;20655;-68
2023/05/25 09:06:56;;;;;;;1.10;1.10;;;23.70;81.90;;;;;;4957647;28;20202;-67
2023/05/25 09:09:23;;;;;;;1.20;1.20;;;23.70;81.40;;;;;;4945459;28;20675;-67
2023/05/25 09:11:52;;;;;;;1.17;1.05;;;23.80;81.20;;;;;;4956119;28;20223;-67
2023/05/25 09:14:19;;;;;;;1.33;1.33;;;23.80;81.80;;;;;;4940593;28;20764;-67
2023/05/25 09:16:47;;;;;;;1.40;1.30;;;23.90;80.80;;;;;;4956019;28;20275;-67
2023/05/25 09:19:14;;;;;;;1.08;1.08;;;24.00;80.70;;;;;;4957394;28;20200;-68
2023/05/25 09:21:42;;;;;;;1.10;1.10;;;24.10;80.60;;;;;;4956537;28;20198;-68
2023/05/25 09:24:10;;;;;;;1.65;1.40;;;24.20;80.40;;;;;;4956452;28;20668;-67
2023/05/25 09:26:38;;;;;;;1.90;1.60;;;24.20;80.10;;;;;;4958053;28;20211;-68
2023/05/25 09:29:06;;;;;;;1.65;1.55;;;24.30;80.10;;;;;;4956445;28;20303;-68
2023/05/25 09:31:35;;;;;;;1.38;1.20;;;24.30;80.20;;;;;;4956356;28;20211;-67
2023/05/25 09:34:02;;;;;;;1.50;1.40;;;24.20;80.10;;;;;;4956982;28;20220;-67
2023/05/25 09:36:29;;;;;;;1.60;1.50;;;24.30;79.90;;;;;;4957854;28;20260;-67
2023/05/25 09:38:56;;;;;;;1.33;1.30;;;24.30;80.40;;;;;;4956452;28;20973;-67
2023/05/25 09:41:26;;;;;;;1.50;1.40;;;24.30;79.20;;;;;;4953503;28;20197;-66
2023/05/25 09:43:53;;;;;;;1.42;1.42;;;24.30;79.30;;;;;;4954542;28;20196;-67
2023/05/25 09:46:22;;;;;;;1.52;1.40;;;24.40;79.30;;;;;;4955730;28;20259;-67
2023/05/25 09:48:52;;;;;;;1.40;1.30;;;24.40;79.10;;;;;;4942977;28;20203;-66
2023/05/25 09:51:20;;;;;;;1.63;1.63;;;24.40;79.20;;;;;;4954454;28;20735;-67
2023/05/25 09:53:47;;;;;;;3.60;1.83;;;24.40;79.20;;;;;;4956757;28;20525;-67
2023/05/25 09:56:16;;;;;;;1.70;1.60;;;24.40;79.50;;;;;;4957794;28;20618;-66
2023/05/25 09:58:43;;;;;;;1.52;1.42;;;24.40;79.50;;;;;;4955341;28;20307;-66
2023/05/25 10:01:11;;;;;;;1.50;1.40;;;24.40;79.50;;;;;;4951315;28;20295;-67
2023/05/25 10:03:46;;;;;;;1.63;1.52;;;24.50;79.40;;;;;;4944189;28;20283;-67
2023/05/25 10:06:14;;;;;;;1.92;1.83;;;24.50;79.10;;;;;;4942385;28;20538;-67
2023/05/25 10:08:43;;;;;;;2.45;1.75;;;24.50;78.60;;;;;;4954770;28;20934;-67
2023/05/25 10:11:13;;;;;;;1.67;1.58;;;24.50;78.00;;;;;;4951167;28;20405;-66
2023/05/25 10:13:41;;;;;;;1.77;1.67;;;24.50;78.00;;;;;;4933072;28;20828;-66
2023/05/25 10:16:11;;;;;;;2.78;1.48;;;24.60;78.00;;;;;;4949301;28;20209;-66
2023/05/25 10:18:47;;;;;;;1.50;1.40;;;24.60;77.90;;;;;;4955712;28;20220;-66
2023/05/25 10:21:17;;;;;;;1.33;1.23;;;24.60;77.90;;;;;;4956594;28;20279;-66
2023/05/25 10:23:47;;;;;;;1.25;1.15;;;24.70;77.90;;;;;;4953887;28;20762;-65
2023/05/25 10:26:18;;;;;;;2.05;1.85;;;24.70;77.90;;;;;;4956485;28;20551;-66
2023/05/25 10:28:47;;;;;;;1.90;1.80;;;24.80;77.70;;;;;;4952258;28;21220;-66
2023/05/25 10:31:16;;;;;;;1.95;1.85;;;24.90;77.60;;;;;;4948240;28;20204;-65
2023/05/25 10:33:46;;;;;;;1.80;1.70;;;24.90;77.70;;;;;;4949551;28;20209;-66
2023/05/25 10:36:13;;;;;;;1.77;1.65;;;25.00;77.60;;;;;;4955689;28;20273;-66
2023/05/25 10:38:43;;;;;;;2.22;1.70;;;25.00;77.50;;;;;;4958183;28;20244;-66
2023/05/25 10:41:11;;;;;;;1.70;1.60;;;25.00;77.30;;;;;;4937870;28;20205;-66
2023/05/25 10:43:39;;;;;;;1.90;1.80;;;25.10;77.10;;;;;;4924695;28;20209;-66
2023/05/25 10:46:07;;;;;;;1.77;1.67;;;25.10;77.10;;;;;;4953213;28;20620;-65
2023/05/25 10:48:38;;;;;;;1.73;1.63;;;25.20;77.20;;;;;;4958836;28;20193;-65
2023/05/25 10:51:07;;;;;;;2.03;1.92;;;25.20;77.10;;;;;;4959630;28;20201;-66
2023/05/25 10:53:35;;;;;;;2.17;1.95;;;25.20;76.90;;;;;;4960194;28;20216;-66
2023/05/25 10:56:03;;;;;;;2.13;2.03;;;25.20;77.00;;;;;;4959043;28;20833;-66
2023/05/25 10:58:32;;;;;;;2.15;1.95;;;25.10;76.70;;;;;;4959919;28;20193;-65
2023/05/25 11:01:01;;;;;;;2.00;1.77;;;25.10;77.10;;;;;;4956136;28;20216;-64
2023/05/25 11:03:51;;;;;;;1.60;1.50;;;25.20;77.10;;;;;;4951393;28;20205;-65
2023/05/25 11:06:21;;;;;;;1.60;1.50;;;25.30;77.20;;;;;;4947521;28;20225;-65
2023/05/25 11:08:54;;;;;;;1.83;1.70;;;25.40;77.30;;;;;;4956256;28;20197;-65
2023/05/25 11:11:22;;;;;;;1.88;1.77;;;25.40;77.40;;;;;;4954520;28;20343;-65
2023/05/25 11:13:49;;;;;;;1.75;1.67;;;25.40;77.40;;;;;;4959844;28;20696;-66
2023/05/25 11:16:23;;;;;;;1.70;1.60;;;25.50;77.40;;;;;;4961555;28;20212;-65
2023/05/25 11:18:56;;;;;;;1.20;1.20;;;25.50;77.20;;;;;;4951778;28;20630;-65
2023/05/25 11:21:43;;;;;;;1.60;1.50;;;25.50;77.10;;;;;;4952891;28;20224;-65
2023/05/25 11:24:15;;;;;;;1.30;1.20;;;25.40;76.70;;;;;;4959815;28;20196;-65
2023/05/25 11:26:57;;;;;;;1.90;1.50;;;25.40;76.30;;;;;;4959527;28;20280;-65
2023/05/25 11:29:25;;;;;;;1.95;1.85;;;25.40;76.20;;;;;;4945665;28;20234;-65
2023/05/25 11:31:54;;;;;;;2.05;1.95;;;25.40;76.00;;;;;;4956695;28;20676;-66
2023/05/25 11:34:24;;;;;;;1.38;1.27;;;25.40;75.60;;;;;;4959174;28;20204;-65
2023/05/25 11:36:56;;;;;;;2.10;1.80;;;25.40;75.70;;;;;;4959889;28;20201;-66
2023/05/25 11:39:23;;;;;;;1.42;1.42;;;25.30;75.90;;;;;;4919156;28;20245;-66
2023/05/25 11:41:55;;;;;;;1.50;1.40;;;25.20;75.90;;;;;;4941093;28;20285;-66
2023/05/25 11:44:28;;;;;;;1.65;1.55;;;25.10;75.90;;;;;;4949067;28;20287;-66
2023/05/25 11:46:56;;;;;;;1.63;1.50;;;25.10;76.10;;;;;;4945346;28;20309;-66
2023/05/25 11:49:24;;;;;;;1.30;1.30;;;25.10;76.20;;;;;;4950070;28;20197;-66
2023/05/25 11:51:51;;;;;;;1.30;1.30;;;25.10;76.10;;;;;;4929848;28;20211;-66
2023/05/25 11:54:25;;;;;;;2.38;2.17;;;25.10;76.10;;;;;;4952943;28;20204;-66
2023/05/25 11:56:55;;;;;;;1.98;1.88;;;25.20;76.20;;;;;;4955891;28;20823;-66
2023/05/25 11:59:22;;;;;;;2.30;2.10;;;25.20;76.60;;;;;;4947688;28;20620;-66
2023/05/25 12:01:57;;;;;;;2.05;1.95;;;25.10;76.90;;;;;;4956440;28;20207;-66
2023/05/25 12:04:24;;;;;;;1.80;1.70;;;25.10;77.50;;;;;;4949320;28;20238;-66
2023/05/25 12:06:51;;;;;;;3.05;2.40;;;25.20;77.90;;;;;;4953079;28;20272;-66
2023/05/25 12:09:23;;;;;;;4.03;2.40;;;25.10;78.80;;;;;;4956920;28;20519;-66
2023/05/25 12:11:51;;;;;;;3.90;2.72;;;25.00;79.30;;;;;;4956700;28;20280;-66
2023/05/25 12:14:19;;;;;;;3.47;2.65;;;24.80;79.60;;;;;;4957249;28;20227;-65
2023/05/25 12:16:47;;;;;;;5.05;3.83;;;24.70;79.90;;;;;;4957627;28;20197;-65
2023/05/25 12:19:14;;;;;;;4.20;3.10;;;24.50;80.00;;;;;;4958531;28;20227;-66
2023/05/25 12:21:41;;;;;;;3.35;2.92;;;24.40;80.30;;;;;;4959504;28;20533;-66
2023/05/25 12:24:11;;;;;;;2.30;2.10;;;24.30;80.80;;;;;;4956867;28;20612;-65
2023/05/25 12:26:49;;;;;;;2.00;1.90;;;24.20;81.10;;;;;;4959222;28;20494;-65
2023/05/25 12:29:17;;;;;;;2.45;2.25;;;24.10;81.40;;;;;;4958131;28;20192;-66
2023/05/25 12:31:44;;;;;;;2.15;2.00;;;24.10;81.80;;;;;;4957036;28;20203;-66
2023/05/25 12:34:13;;;;;;;3.90;2.75;;;24.00;82.00;;;;;;4954868;28;20274;-66
2023/05/25 12:36:45;;;;;;;2.53;2.33;;;24.00;82.10;;;;;;4958075;28;20553;-66
2023/05/25 12:39:14;;;;;;;3.20;2.10;;;23.90;83.00;;;;;;4954060;28;20661;-66
2023/05/25 12:41:50;;;;;;;2.20;2.10;;;23.80;82.30;;;;;;4958514;28;20343;-67
2023/05/25 12:44:25;;;;;;;1.88;1.75;;;23.80;82.50;;;;;;4959312;28;20330;-66
2023/05/25 12:46:53;;;;;;;1.88;1.77;;;23.70;82.60;;;;;;4939437;28;20878;-66
2023/05/25 12:49:31;;;;;;;1.38;1.38;;;23.70;82.70;;;;;;4961235;28;20878;-66
2023/05/25 12:51:59;;;;;;;1.50;1.40;;;23.70;82.80;;;;;;4956993;28;20342;-65
2023/05/25 12:54:39;;;;;;;1.60;1.50;;;23.60;82.90;;;;;;4957411;28;20205;-66
2023/05/25 12:57:09;;;;;;;1.58;1.30;;;23.60;82.90;;;;;;4953947;28;20207;-66